Terminal Aerodrome Forecast
Issued by NWS Austin/San Antonio, TX

Home | Current Version | Previous Version | Text Only | Print | Product List | Glossary On
Versions: 1 2 3 4 5 6 7 8 9 10 11 12 13 14 15 16 17 18
000
FTUS44 KEWX 101157
TAFDRT
TAF
KDRT 101157Z 1012/1112 12007KT P6SM OVC029
     FM101600 14011KT P6SM BKN030
     FM110100 12008KT P6SM BKN025
     FM110500 11006KT 5SM BR OVC007=

USA.gov is the U.S. government's official web portal to all federal, state and local government web resources and services.